Time;durP1;ratioP1;P1;durP2;ratioP2;P2;SDS_P1;SDS_P2;PMS_P1;PMS_P2;Temp;Humidity;BMP_temperature;BMP_pressure;BME280_temperature;BME280_humidity;BME280_pressure;Samples;Min_cycle;Max_cycle;Signal;HPM_P1;HPM_P2
2024/01/25 00:00:29;;;;;;;11.00;3.20;;;;;;;6.47;100.00;99579.70;51450;1268;1077073;-78
2024/01/25 00:03:36;;;;;;;7.90;2.10;;;;;;;6.45;100.00;99577.13;51496;1270;1076697;-78
2024/01/25 00:06:21;;;;;;;8.00;2.20;;;;;;;6.42;100.00;99583.36;51855;1268;1076339;-78
2024/01/25 00:09:08;;;;;;;6.70;1.70;;;;;;;6.40;100.00;99583.30;51483;1267;1076830;-77
2024/01/25 00:11:54;;;;;;;6.00;1.80;;;;;;;6.36;100.00;99592.77;51626;1268;1079720;-78
2024/01/25 00:14:40;;;;;;;7.10;1.80;;;;;;;6.33;100.00;99588.05;51482;1268;1076840;-78
2024/01/25 00:17:26;;;;;;;8.60;2.30;;;;;;;6.30;100.00;99594.56;51519;1268;1077313;-79
2024/01/25 00:20:12;;;;;;;6.80;2.40;;;;;;;6.28;100.00;99599.33;51887;1272;1077069;-79
2024/01/25 00:22:57;;;;;;;5.80;2.60;;;;;;;6.25;100.00;99599.27;51911;1271;1076930;-79
2024/01/25 00:25:44;;;;;;;8.40;2.20;;;;;;;6.21;100.00;99607.13;51911;1268;1076168;-80
2024/01/25 00:28:29;;;;;;;6.60;2.00;;;;;;;6.19;100.00;99599.61;51874;1268;1077725;-80
2024/01/25 00:31:15;;;;;;;9.00;2.00;;;;;;;6.18;100.00;99594.23;51627;1267;1077000;-78
2024/01/25 00:34:02;;;;;;;9.00;2.00;;;;;;;6.18;100.00;99592.23;51609;1267;1076479;-77
2024/01/25 00:36:48;;;;;;;7.70;2.20;;;;;;;6.20;100.00;99589.77;51843;1271;1076696;-79
2024/01/25 00:39:34;;;;;;;6.80;2.60;;;;;;;6.21;100.00;99599.15;51957;1267;1076259;-79
2024/01/25 00:42:22;;;;;;;7.80;2.50;;;;;;;6.21;100.00;99594.94;51820;1268;1076649;-79
2024/01/25 00:45:08;;;;;;;12.40;2.40;;;;;;;6.21;100.00;99593.84;52133;1270;1076786;-78
2024/01/25 00:47:54;;;;;;;13.00;2.50;;;;;;;6.23;100.00;99596.61;51906;1265;1076433;-79
2024/01/25 00:50:40;;;;;;;13.80;3.30;;;;;;;6.25;100.00;99593.92;51872;1270;1076144;-79
2024/01/25 00:53:26;;;;;;;14.00;3.80;;;;;;;6.27;100.00;99598.52;51889;1267;1076900;-79
2024/01/25 00:56:12;;;;;;;15.90;3.20;;;;;;;6.28;100.00;99601.17;51925;1268;1076008;-78
2024/01/25 00:58:58;;;;;;;11.00;3.00;;;;;;;6.29;100.00;99588.52;51827;1268;1076591;-77
2024/01/25 01:01:47;;;;;;;11.60;2.50;;;;;;;6.29;100.00;99596.64;51559;1270;1076649;-77
2024/01/25 01:04:33;;;;;;;12.30;2.70;;;;;;;6.30;100.00;99590.92;51597;1267;1075945;-78
2024/01/25 01:07:19;;;;;;;17.10;3.10;;;;;;;6.29;100.00;99593.70;51551;1268;1076595;-78
2024/01/25 01:10:05;;;;;;;14.90;2.80;;;;;;;6.28;100.00;99586.52;51602;1268;1076916;-78
2024/01/25 01:12:53;;;;;;;7.00;2.30;;;;;;;6.26;100.00;99590.46;51641;1270;1076268;-78
2024/01/25 01:15:38;;;;;;;12.40;4.00;;;;;;;6.26;100.00;99602.12;51535;1267;1078026;-78
2024/01/25 01:18:24;;;;;;;17.40;3.60;;;;;;;6.25;100.00;99595.14;51567;1270;1077352;-78
2024/01/25 01:21:10;;;;;;;10.00;3.80;;;;;;;6.25;100.00;99601.04;51623;1271;1076511;-78
2024/01/25 01:23:56;;;;;;;14.10;3.10;;;;;;;6.24;100.00;99594.38;51625;1268;1076690;-78
2024/01/25 01:26:42;;;;;;;11.30;3.20;;;;;;;6.23;100.00;99600.38;51467;1271;1076610;-78
2024/01/25 01:29:28;;;;;;;19.50;4.40;;;;;;;6.22;100.00;99600.10;51484;1280;1077622;-77
2024/01/25 01:32:13;;;;;;;17.40;3.70;;;;;;;6.21;100.00;99598.11;51469;1267;1076722;-77
2024/01/25 01:34:59;;;;;;;15.90;3.50;;;;;;;6.20;100.00;99600.73;51487;1270;1077187;-77
2024/01/25 01:37:45;;;;;;;14.40;3.30;;;;;;;6.19;100.00;99600.27;51481;1270;1076551;-79
2024/01/25 01:40:31;;;;;;;12.90;3.30;;;;;;;6.17;100.00;99596.23;51664;1270;1078699;-78
2024/01/25 01:43:20;;;;;;;15.80;3.40;;;;;;;6.17;100.00;99603.21;51648;1271;1076992;-77
2024/01/25 01:46:39;;;;;;;19.70;3.70;;;;;;;6.17;100.00;99606.73;51474;1274;1077144;-78
2024/01/25 01:49:26;;;;;;;13.70;2.90;;;;;;;6.16;100.00;99601.81;51554;1271;1077428;-78
2024/01/25 01:52:12;;;;;;;12.60;3.00;;;;;;;6.17;100.00;99602.55;51628;1272;1075981;-78
2024/01/25 01:54:58;;;;;;;14.80;3.10;;;;;;;6.17;100.00;99601.39;51621;1270;1076810;-78
2024/01/25 01:57:45;;;;;;;12.90;3.30;;;;;;;6.18;100.00;99609.13;51671;1267;1076416;-79
2024/01/25 02:00:33;;;;;;;12.70;3.30;;;;;;;6.17;100.00;99607.60;51746;1268;1077496;-77
2024/01/25 02:03:19;;;;;;;17.60;3.70;;;;;;;6.17;100.00;99604.78;51726;1267;1076072;-79
2024/01/25 02:06:06;;;;;;;14.00;3.50;;;;;;;6.18;100.00;99614.10;51886;1268;1076697;-77
2024/01/25 02:08:53;;;;;;;15.10;3.80;;;;;;;6.18;100.00;99606.98;51617;1270;1076850;-77
2024/01/25 02:11:39;;;;;;;14.20;3.30;;;;;;;6.17;100.00;99603.67;51646;1270;1076458;-78
2024/01/25 02:14:24;;;;;;;17.40;2.70;;;;;;;6.17;100.00;99611.13;51726;1267;1076526;-77
2024/01/25 02:17:10;;;;;;;11.90;3.00;;;;;;;6.16;100.00;99610.20;51674;1268;1076798;-77
2024/01/25 02:19:56;;;;;;;15.30;3.70;;;;;;;6.13;100.00;99612.17;51501;1267;1076305;-78
2024/01/25 02:22:42;;;;;;;19.20;3.10;;;;;;;6.11;100.00;99612.96;51466;1268;1077734;-78
2024/01/25 02:25:27;;;;;;;13.40;3.00;;;;;;;6.09;100.00;99614.23;51601;1268;1076821;-77
2024/01/25 02:28:13;;;;;;;14.40;3.10;;;;;;;6.07;100.00;99618.62;51670;1273;1076865;-77
2024/01/25 02:31:01;;;;;;;16.70;3.20;;;;;;;6.05;100.00;99618.30;51612;1271;1076203;-77
2024/01/25 02:33:46;;;;;;;11.90;3.10;;;;;;;6.03;100.00;99610.63;51540;1270;1077183;-78
2024/01/25 02:36:32;;;;;;;15.40;3.20;;;;;;;6.01;100.00;99621.94;51562;1271;1077541;-77
2024/01/25 02:39:18;;;;;;;15.60;5.20;;;;;;;5.99;100.00;99624.35;51610;1271;1076505;-77
2024/01/25 02:42:04;;;;;;;11.80;3.00;;;;;;;5.97;100.00;99627.10;51578;1270;1076698;-77
2024/01/25 02:44:49;;;;;;;11.00;3.20;;;;;;;5.94;100.00;99624.55;51563;1267;1076907;-78
2024/01/25 02:47:35;;;;;;;12.10;3.80;;;;;;;5.90;100.00;99620.23;51505;1270;1076214;-78
2024/01/25 02:50:21;;;;;;;14.10;3.60;;;;;;;5.89;100.00;99616.34;51477;1281;1076897;-77
2024/01/25 02:53:07;;;;;;;12.30;3.00;;;;;;;5.89;100.00;99614.08;51474;1271;1076265;-78
2024/01/25 02:55:53;;;;;;;15.70;3.00;;;;;;;5.87;100.00;99621.17;51680;1271;1079344;-77
2024/01/25 02:58:38;;;;;;;19.20;3.90;;;;;;;5.86;100.00;99618.42;51668;1271;1077706;-77
2024/01/25 03:01:24;;;;;;;21.10;3.40;;;;;;;5.84;100.00;99613.73;51535;1271;1076933;-78
2024/01/25 03:04:10;;;;;;;14.00;3.00;;;;;;;5.82;100.00;99620.65;51536;1270;1076005;-78
2024/01/25 03:06:56;;;;;;;14.80;3.90;;;;;;;5.80;100.00;99623.56;51513;1271;1076828;-77
2024/01/25 03:09:42;;;;;;;13.30;2.90;;;;;;;5.80;100.00;99633.70;51498;1267;1076570;-77
2024/01/25 03:12:28;;;;;;;14.50;3.60;;;;;;;5.78;100.00;99637.42;51583;1268;1076943;-77
2024/01/25 03:15:14;;;;;;;15.40;3.50;;;;;;;5.77;100.00;99643.25;51554;1271;1077055;-78
2024/01/25 03:18:00;;;;;;;17.70;2.90;;;;;;;5.76;100.00;99644.07;51563;1267;1076781;-77
2024/01/25 03:20:46;;;;;;;20.20;3.70;;;;;;;5.74;100.00;99654.96;51507;1271;1078729;-78
2024/01/25 03:23:32;;;;;;;12.90;4.10;;;;;;;5.73;100.00;99654.17;51676;1278;1078229;-78
2024/01/25 03:26:17;;;;;;;18.10;3.60;;;;;;;5.72;100.00;99652.70;51499;1272;1076694;-78
2024/01/25 03:29:03;;;;;;;14.90;3.40;;;;;;;5.70;100.00;99647.84;51534;1266;1076327;-77
2024/01/25 03:31:50;;;;;;;16.90;4.70;;;;;;;5.69;100.00;99649.13;51394;1268;1076332;-78
2024/01/25 03:34:36;;;;;;;10.90;3.10;;;;;;;5.69;100.00;99645.98;51434;1280;1076508;-78
2024/01/25 03:37:22;;;;;;;17.00;3.90;;;;;;;5.68;100.00;99645.30;51404;1267;1076556;-78
2024/01/25 03:40:08;;;;;;;13.20;4.60;;;;;;;5.69;100.00;99652.85;51770;1271;1076150;-79
2024/01/25 03:42:54;;;;;;;15.70;3.50;;;;;;;5.69;100.00;99650.19;51689;1273;1077186;-77
2024/01/25 03:45:39;;;;;;;16.40;3.50;;;;;;;5.68;100.00;99655.65;51457;1270;1077373;-77
2024/01/25 03:48:25;;;;;;;26.80;4.20;;;;;;;5.67;100.00;99655.09;51585;1268;1076618;-77
2024/01/25 03:51:11;;;;;;;13.00;3.60;;;;;;;5.64;100.00;99658.56;51708;1271;1076684;-78
2024/01/25 03:53:58;;;;;;;17.40;3.00;;;;;;;5.64;100.00;99657.33;51643;1271;1076569;-77
2024/01/25 03:56:44;;;;;;;14.30;3.30;;;;;;;5.62;100.00;99655.10;51640;1265;1076153;-78
2024/01/25 03:59:29;;;;;;;16.10;3.00;;;;;;;5.62;100.00;99655.63;51693;1270;1076958;-77
2024/01/25 04:02:15;;;;;;;17.90;4.30;;;;;;;5.62;100.00;99657.98;51860;1270;1076611;-79
2024/01/25 04:05:01;;;;;;;18.30;3.70;;;;;;;5.60;100.00;99655.15;51733;1270;1077218;-77
2024/01/25 04:07:47;;;;;;;10.20;3.40;;;;;;;5.59;100.00;99647.81;51780;1270;1077500;-79
2024/01/25 04:10:33;;;;;;;12.00;3.60;;;;;;;5.59;100.00;99648.25;51947;1270;1076210;-79
2024/01/25 04:13:18;;;;;;;15.50;3.50;;;;;;;5.55;100.00;99644.39;51684;1274;1077731;-78
2024/01/25 04:16:05;;;;;;;14.20;3.60;;;;;;;5.54;100.00;99651.64;51654;1268;1076588;-78
2024/01/25 04:18:50;;;;;;;18.60;4.20;;;;;;;5.54;100.00;99647.75;51705;1270;1077082;-78
2024/01/25 04:21:37;;;;;;;11.20;2.70;;;;;;;5.53;100.00;99645.77;51622;1270;1079046;-78
2024/01/25 04:24:23;;;;;;;10.90;2.70;;;;;;;5.51;100.00;99645.79;51665;1270;1076874;-78
2024/01/25 04:27:09;;;;;;;13.50;3.00;;;;;;;5.50;100.00;99645.02;51655;1271;1076682;-78
2024/01/25 04:29:54;;;;;;;19.50;3.50;;;;;;;5.49;100.00;99639.66;51495;1273;1076841;-78
2024/01/25 04:32:40;;;;;;;12.80;3.10;;;;;;;5.46;100.00;99637.59;51570;1270;1076486;-78
2024/01/25 04:35:26;;;;;;;11.70;2.80;;;;;;;5.45;100.00;99646.50;51573;1279;1077207;-78
2024/01/25 04:38:11;;;;;;;17.70;3.40;;;;;;;5.44;100.00;99653.52;51515;1270;1076858;-78
2024/01/25 04:40:57;;;;;;;10.60;2.40;;;;;;;5.42;100.00;99652.83;51689;1271;1076845;-77
2024/01/25 04:43:43;;;;;;;12.80;3.10;;;;;;;5.41;100.00;99639.70;51514;1270;1076770;-77
2024/01/25 04:46:29;;;;;;;7.20;2.00;;;;;;;5.41;100.00;99640.74;51582;1269;1076707;-77
2024/01/25 04:49:14;;;;;;;15.30;2.50;;;;;;;5.41;100.00;99637.22;51694;1271;1076134;-77
2024/01/25 04:52:00;;;;;;;11.90;2.30;;;;;;;5.41;100.00;99642.52;51598;1267;1076817;-78
2024/01/25 04:54:46;;;;;;;11.50;2.80;;;;;;;5.43;100.00;99645.35;51589;1265;1077497;-77
2024/01/25 04:57:32;;;;;;;14.00;3.50;;;;;;;5.43;100.00;99634.34;51509;1270;1077007;-77
2024/01/25 05:00:18;;;;;;;10.00;2.80;;;;;;;5.43;100.00;99648.96;51472;1281;1078459;-78
2024/01/25 05:03:04;;;;;;;11.90;2.50;;;;;;;5.44;100.00;99652.83;51577;1270;1076074;-79
2024/01/25 05:05:50;;;;;;;14.00;3.50;;;;;;;5.44;100.00;99649.19;51467;1270;1077063;-78
2024/01/25 05:08:35;;;;;;;12.60;3.30;;;;;;;5.45;100.00;99646.94;51562;1269;1077381;-78
2024/01/25 05:11:21;;;;;;;10.50;2.50;;;;;;;5.46;100.00;99646.73;51917;1269;1076855;-79
2024/01/25 05:14:07;;;;;;;13.90;3.40;;;;;;;5.47;100.00;99648.20;51972;1270;1076347;-79
2024/01/25 05:16:53;;;;;;;18.80;3.60;;;;;;;5.48;100.00;99652.33;51684;1272;1076950;-76
2024/01/25 05:19:39;;;;;;;13.10;2.80;;;;;;;5.50;100.00;99660.30;51512;1271;1077453;-78
2024/01/25 05:22:25;;;;;;;12.00;3.00;;;;;;;5.51;100.00;99656.65;51473;1267;1076928;-77
2024/01/25 05:25:10;;;;;;;6.00;2.30;;;;;;;5.51;100.00;99664.88;51614;1267;1076988;-78
2024/01/25 05:27:57;;;;;;;17.40;3.00;;;;;;;5.53;100.00;99661.88;51596;1271;1076513;-79
2024/01/25 05:30:43;;;;;;;14.00;3.00;;;;;;;5.54;100.00;99672.70;51560;1267;1077146;-78
2024/01/25 05:33:28;;;;;;;16.50;4.10;;;;;;;5.56;100.00;99672.67;51493;1271;1076084;-77
2024/01/25 05:36:14;;;;;;;14.70;3.20;;;;;;;5.57;100.00;99672.65;51651;1270;1076774;-78
2024/01/25 05:39:00;;;;;;;12.40;3.20;;;;;;;5.57;100.00;99670.70;51454;1267;1076402;-78
2024/01/25 05:41:46;;;;;;;14.90;3.40;;;;;;;5.57;100.00;99672.16;51551;1269;1077277;-78
2024/01/25 05:44:32;;;;;;;17.20;3.60;;;;;;;5.55;100.00;99681.77;51461;1270;1076549;-78
2024/01/25 05:47:17;;;;;;;17.60;4.40;;;;;;;5.54;100.00;99685.59;51624;1270;1077547;-78
2024/01/25 05:50:04;;;;;;;12.60;3.80;;;;;;;5.53;100.00;99695.63;51702;1271;1076082;-79
2024/01/25 05:52:50;;;;;;;13.10;3.10;;;;;;;5.53;100.00;99691.13;51513;1267;1076574;-78
2024/01/25 05:55:36;;;;;;;11.70;3.20;;;;;;;5.52;100.00;99699.04;51553;1273;1077856;-78
2024/01/25 05:58:22;;;;;;;20.50;4.50;;;;;;;5.51;100.00;99692.73;51620;1281;1077379;-78
2024/01/25 06:01:07;;;;;;;21.30;3.70;;;;;;;5.51;100.00;99698.77;51571;1273;1075985;-78
2024/01/25 06:03:53;;;;;;;15.60;3.80;;;;;;;5.50;100.00;99695.89;51570;1270;1077295;-78
2024/01/25 06:06:39;;;;;;;12.50;4.00;;;;;;;5.50;100.00;99698.48;51534;1267;1076895;-81
2024/01/25 06:09:26;;;;;;;12.70;3.60;;;;;;;5.50;100.00;99705.79;51605;1270;1076906;-77
2024/01/25 06:12:11;;;;;;;16.10;3.90;;;;;;;5.50;100.00;99712.49;51512;1267;1077039;-77
2024/01/25 06:14:57;;;;;;;16.80;3.60;;;;;;;5.50;100.00;99708.24;51464;1278;1076572;-77
2024/01/25 06:17:43;;;;;;;13.00;3.30;;;;;;;5.48;100.00;99713.52;51595;1268;1077589;-77
2024/01/25 06:20:29;;;;;;;16.40;3.60;;;;;;;5.49;100.00;99711.36;51688;1267;1076689;-77
2024/01/25 06:23:15;;;;;;;15.20;3.20;;;;;;;5.49;100.00;99707.65;51618;1267;1076824;-77
2024/01/25 06:26:00;;;;;;;19.70;3.40;;;;;;;5.49;100.00;99714.84;51501;1286;1077428;-77
2024/01/25 06:28:46;;;;;;;20.90;3.90;;;;;;;5.50;100.00;99714.29;51488;1270;1076447;-77
2024/01/25 06:31:32;;;;;;;19.80;4.20;;;;;;;5.50;100.00;99700.45;51476;1270;1076736;-78
2024/01/25 06:34:18;;;;;;;13.20;3.60;;;;;;;5.51;100.00;99700.70;51526;1267;1076593;-77
2024/01/25 06:37:04;;;;;;;16.50;3.40;;;;;;;5.51;100.00;99700.02;51537;1281;1076240;-78
2024/01/25 06:39:49;;;;;;;15.20;2.60;;;;;;;5.50;100.00;99711.73;51478;1267;1076166;-78
2024/01/25 06:42:35;;;;;;;14.10;2.70;;;;;;;5.51;100.00;99706.02;51516;1267;1077904;-78
2024/01/25 06:45:21;;;;;;;11.80;2.50;;;;;;;5.51;100.00;99712.23;51585;1267;1076888;-77
2024/01/25 06:48:10;;;;;;;6.50;1.90;;;;;;;5.50;100.00;99718.14;51569;1267;1077339;-79
2024/01/25 06:50:56;;;;;;;9.00;2.40;;;;;;;5.49;100.00;99717.31;51547;1269;1077484;-78
2024/01/25 06:53:42;;;;;;;9.90;2.00;;;;;;;5.49;100.00;99717.14;51516;1271;1076633;-77
2024/01/25 06:56:28;;;;;;;11.50;2.20;;;;;;;5.49;100.00;99726.94;51563;1267;1080251;-77
2024/01/25 06:59:13;;;;;;;7.30;2.30;;;;;;;5.47;100.00;99718.79;51570;1270;1077936;-77
2024/01/25 07:02:00;;;;;;;12.20;2.30;;;;;;;5.48;100.00;99725.90;51695;1270;1076349;-78
2024/01/25 07:04:46;;;;;;;11.20;2.20;;;;;;;5.49;100.00;99736.48;51427;1268;1076390;-78
2024/01/25 07:07:32;;;;;;;10.70;3.20;;;;;;;5.51;100.00;99730.50;51477;1270;1077402;-78
2024/01/25 07:10:18;;;;;;;11.60;2.30;;;;;;;5.51;100.00;99739.35;51559;1270;1075998;-77
2024/01/25 07:13:04;;;;;;;18.50;3.20;;;;;;;5.50;100.00;99742.41;51472;1270;1077022;-78
2024/01/25 07:15:50;;;;;;;13.30;2.70;;;;;;;5.51;100.00;99746.20;51529;1267;1078037;-78
2024/01/25 07:18:36;;;;;;;11.00;2.40;;;;;;;5.51;100.00;99751.30;51661;1268;1076146;-78
2024/01/25 07:21:21;;;;;;;9.60;2.10;;;;;;;5.51;100.00;99753.38;51599;1267;1077036;-76
2024/01/25 07:24:07;;;;;;;8.00;1.90;;;;;;;5.52;100.00;99755.81;51432;1287;1078153;-78
2024/01/25 07:26:53;;;;;;;10.00;3.20;;;;;;;5.54;100.00;99753.44;51495;1271;1077143;-77
2024/01/25 07:29:39;;;;;;;11.60;3.50;;;;;;;5.54;100.00;99756.46;51514;1270;1076996;-78
2024/01/25 07:32:25;;;;;;;10.90;3.00;;;;;;;5.57;100.00;99763.09;51536;1270;1076870;-79
2024/01/25 07:35:12;;;;;;;9.30;2.80;;;;;;;5.57;100.00;99764.61;51601;1273;1076180;-77
2024/01/25 07:37:58;;;;;;;5.90;2.10;;;;;;;5.59;100.00;99768.73;51488;1267;1076916;-78
2024/01/25 07:40:44;;;;;;;6.40;2.10;;;;;;;5.59;100.00;99773.94;51642;1267;1076954;-79
2024/01/25 07:43:30;;;;;;;5.90;1.50;;;;;;;5.60;100.00;99779.55;51862;1265;1076654;-79
2024/01/25 07:46:15;;;;;;;6.80;1.90;;;;;;;5.61;100.00;99778.84;51949;1282;1077424;-79
2024/01/25 07:49:01;;;;;;;5.80;1.90;;;;;;;5.63;100.00;99784.47;51941;1270;1076544;-78
2024/01/25 07:51:47;;;;;;;3.90;1.50;;;;;;;5.64;100.00;99788.40;51925;1270;1076955;-78
2024/01/25 07:54:33;;;;;;;6.10;1.50;;;;;;;5.65;100.00;99790.95;51814;1267;1076312;-79
2024/01/25 07:57:19;;;;;;;3.40;1.40;;;;;;;5.65;100.00;99788.64;51862;1270;1078179;-79
2024/01/25 08:00:07;;;;;;;3.50;1.40;;;;;;;5.66;100.00;99784.84;51635;1271;1076336;-77
2024/01/25 08:02:52;;;;;;;5.60;1.80;;;;;;;5.66;100.00;99790.61;51777;1267;1076782;-77
2024/01/25 08:05:38;;;;;;;9.60;2.50;;;;;;;5.66;100.00;99799.55;51611;1270;1076262;-78
2024/01/25 08:08:24;;;;;;;8.10;1.70;;;;;;;5.64;100.00;99799.60;51840;1267;1076229;-79
2024/01/25 08:11:10;;;;;;;8.80;2.20;;;;;;;5.63;100.00;99798.45;51843;1266;1076869;-78
2024/01/25 08:13:55;;;;;;;4.40;1.40;;;;;;;5.61;100.00;99808.95;51645;1267;1076715;-79
2024/01/25 08:16:42;;;;;;;4.90;1.40;;;;;;;5.61;100.00;99799.09;51695;1267;1076635;-78
2024/01/25 08:19:28;;;;;;;1.80;1.10;;;;;;;5.61;100.00;99799.63;51680;1267;1076222;-79
2024/01/25 08:22:13;;;;;;;19.50;11.50;;;;;;;5.60;100.00;99800.48;51786;1270;1076937;-77
2024/01/25 08:24:59;;;;;;;7.50;3.20;;;;;;;5.59;100.00;99801.92;51825;1267;1077246;-79
2024/01/25 08:27:46;;;;;;;3.50;1.40;;;;;;;5.59;100.00;99802.98;51743;1271;1076773;-78
2024/01/25 08:30:32;;;;;;;3.30;1.20;;;;;;;5.59;100.00;99790.11;51726;1267;1077697;-77
2024/01/25 08:33:18;;;;;;;6.10;2.20;;;;;;;5.58;100.00;99803.45;51750;1267;1077350;-79
2024/01/25 08:36:04;;;;;;;2.90;1.40;;;;;;;5.58;100.00;99802.45;51873;1268;1076513;-79
2024/01/25 08:38:50;;;;;;;7.80;3.00;;;;;;;5.56;100.00;99803.37;51789;1267;1076624;-77
2024/01/25 08:41:36;;;;;;;3.10;1.50;;;;;;;5.54;100.00;99809.02;51607;1271;1077283;-79
2024/01/25 08:44:21;;;;;;;6.90;1.50;;;;;;;5.54;100.00;99817.25;51671;1267;1076835;-78
2024/01/25 08:47:07;;;;;;;3.10;1.50;;;;;;;5.54;100.00;99817.80;51628;1267;1076758;-81
2024/01/25 08:49:53;;;;;;;5.20;2.00;;;;;;;5.54;100.00;99817.95;51960;1266;1076052;-84
2024/01/25 08:52:40;;;;;;;4.30;2.50;;;;;;;5.53;100.00;99825.76;52158;1267;1077783;-84
2024/01/25 08:55:26;;;;;;;3.20;1.60;;;;;;;5.53;100.00;99827.13;52151;1273;1076528;-78
2024/01/25 08:58:12;;;;;;;4.70;1.70;;;;;;;5.51;100.00;99838.74;51764;1267;1076388;-79
2024/01/25 09:00:58;;;;;;;3.70;1.70;;;;;;;5.52;100.00;99842.27;52077;1267;1078473;-89
2024/01/25 09:03:52;;;;;;;4.40;2.30;;;;;;;5.54;100.00;99854.70;52028;1266;1077212;-90
2024/01/25 09:06:38;;;;;;;5.10;1.70;;;;;;;5.55;100.00;99859.16;52090;1267;1076575;-79
2024/01/25 09:09:24;;;;;;;4.70;1.60;;;;;;;5.56;100.00;99870.15;51852;1270;1078377;-79
2024/01/25 09:12:12;;;;;;;5.20;1.80;;;;;;;5.56;100.00;99872.10;52010;1270;1077307;-86
2024/01/25 09:14:58;;;;;;;7.20;1.60;;;;;;;5.56;100.00;99878.98;51880;1273;1076793;-85
2024/01/25 09:17:45;;;;;;;1.80;1.30;;;;;;;5.56;100.00;99886.81;52003;1267;1076683;-86
2024/01/25 09:20:31;;;;;;;5.20;2.70;;;;;;;5.57;100.00;99904.38;51912;1267;1076804;-87
2024/01/25 09:23:20;;;;;;;2.60;1.30;;;;;;;5.57;100.00;99900.48;52036;1267;1077349;-87
2024/01/25 09:26:05;;;;;;;5.20;1.60;;;;;;;5.59;100.00;99903.11;52029;1267;1076421;-84
2024/01/25 09:28:51;;;;;;;4.40;1.40;;;;;;;5.60;100.00;99897.45;51839;1273;1077854;-83
2024/01/25 09:31:37;;;;;;;6.00;1.50;;;;;;;5.62;100.00;99908.60;51935;1270;1077637;-85
2024/01/25 09:34:22;;;;;;;2.60;1.20;;;;;;;5.61;100.00;99918.81;51981;1273;1077664;-84
2024/01/25 09:37:08;;;;;;;2.90;1.40;;;;;;;5.60;100.00;99920.79;51844;1267;1077664;-85
2024/01/25 09:39:55;;;;;;;2.10;1.50;;;;;;;5.62;100.00;99921.16;52120;1268;1077213;-78
2024/01/25 09:42:41;;;;;;;4.80;1.50;;;;;;;5.62;100.00;99923.81;52181;1270;1076783;-84
2024/01/25 09:45:26;;;;;;;2.00;1.50;;;;;;;5.63;100.00;99928.83;52002;1270;1076406;-80
2024/01/25 09:48:13;;;;;;;2.90;1.30;;;;;;;5.64;100.00;99935.63;52033;1267;1075943;-88
2024/01/25 09:50:59;;;;;;;1.80;1.00;;;;;;;5.65;100.00;99943.13;51110;1267;2048456;-89
2024/01/25 09:53:49;;;;;;;4.50;1.30;;;;;;;5.65;100.00;99952.83;52166;1273;1076534;-79
2024/01/25 09:56:35;;;;;;;1.70;1.00;;;;;;;5.67;100.00;99954.44;52069;1267;1076892;-82
2024/01/25 09:59:22;;;;;;;2.90;1.00;;;;;;;5.67;100.00;99958.64;51993;1267;1076505;-83
2024/01/25 10:02:08;;;;;;;1.70;1.10;;;;;;;5.68;100.00;99961.38;52030;1273;1076925;-83
2024/01/25 10:04:54;;;;;;;1.80;1.10;;;;;;;5.69;100.00;99969.92;52051;1270;1076222;-82
2024/01/25 10:07:41;;;;;;;2.60;1.20;;;;;;;5.70;100.00;99970.86;51861;1267;1076539;-78
2024/01/25 10:10:33;;;;;;;1.50;1.40;;;;;;;5.70;100.00;99971.55;51500;1273;1077864;-78
2024/01/25 10:13:19;;;;;;;2.80;1.10;;;;;;;5.70;100.00;99980.27;51547;1267;1076516;-78
2024/01/25 10:16:05;;;;;;;1.50;1.40;;;;;;;5.70;100.00;99988.44;51608;1267;1076117;-78
2024/01/25 10:18:52;;;;;;;1.40;1.30;;;;;;;5.70;100.00;99982.23;51742;1273;1076395;-79
2024/01/25 10:21:41;;;;;;;1.00;0.90;;;;;;;5.69;100.00;99995.19;51700;1267;1076219;-78
2024/01/25 10:24:27;;;;;;;2.60;1.60;;;;;;;5.70;100.00;99994.06;52251;1267;1076971;-79
2024/01/25 10:27:13;;;;;;;2.30;1.50;;;;;;;5.71;100.00;99993.59;51703;1273;1076578;-79
2024/01/25 10:29:59;;;;;;;2.10;1.40;;;;;;;5.70;100.00;100000.77;51756;1267;1078930;-79
2024/01/25 10:32:46;;;;;;;3.30;1.00;;;;;;;5.70;100.00;99991.73;51836;1267;1076743;-78
2024/01/25 10:35:32;;;;;;;3.10;1.00;;;;;;;5.70;100.00;99986.23;51873;1268;1077674;-78
2024/01/25 10:38:18;;;;;;;2.70;1.30;;;;;;;5.72;100.00;99993.71;51989;1272;1076496;-78
2024/01/25 10:41:06;;;;;;;3.80;2.10;;;;;;;5.74;100.00;99994.35;51909;1273;1076604;-79
2024/01/25 10:43:51;;;;;;;2.00;1.60;;;;;;;5.77;100.00;99993.14;51949;1268;1078810;-79
2024/01/25 10:46:40;;;;;;;4.10;1.80;;;;;;;5.79;100.00;99993.90;51914;1272;1076816;-89
2024/01/25 10:49:26;;;;;;;2.20;1.30;;;;;;;5.82;100.00;99999.09;51833;1267;1078237;-85
2024/01/25 10:52:13;;;;;;;2.80;1.20;;;;;;;5.85;100.00;100001.42;51687;1267;1076727;-86
2024/01/25 10:54:59;;;;;;;2.60;1.20;;;;;;;5.89;100.00;100000.48;52065;1267;1077371;-85
2024/01/25 10:57:45;;;;;;;2.60;1.50;;;;;;;5.95;100.00;100001.43;52040;1267;1076689;-84
2024/01/25 11:00:33;;;;;;;1.70;1.00;;;;;;;5.97;100.00;100003.95;51954;1267;1077204;-86
2024/01/25 11:03:20;;;;;;;3.30;1.40;;;;;;;6.00;100.00;100008.21;52047;1267;1076258;-85
2024/01/25 11:06:10;;;;;;;3.50;1.40;;;;;;;6.05;100.00;100012.81;52061;1267;1077380;-82
2024/01/25 11:09:05;;;;;;;3.20;1.20;;;;;;;6.08;100.00;100011.04;51933;1270;1076245;-85
2024/01/25 11:11:54;;;;;;;3.20;1.40;;;;;;;6.11;100.00;100016.52;52064;1268;1077581;-84
2024/01/25 11:14:40;;;;;;;2.90;1.10;;;;;;;6.13;100.00;100022.30;52041;1267;1076191;-85
2024/01/25 11:17:25;;;;;;;3.30;1.20;;;;;;;6.14;100.00;100012.48;51991;1273;1077007;-84
2024/01/25 11:20:15;;;;;;;1.50;0.90;;;;;;;6.16;100.00;100018.48;52073;1266;1077337;-80
2024/01/25 11:23:06;;;;;;;3.50;1.50;;;;;;;6.16;100.00;100023.91;52084;1267;1076752;-87
2024/01/25 11:25:54;;;;;;;2.40;1.10;;;;;;;6.18;100.00;100024.96;52119;1267;1076542;-82
2024/01/25 11:28:40;;;;;;;4.70;1.20;;;;;;;6.18;100.00;100030.13;52025;1267;1076934;-84
2024/01/25 11:31:28;;;;;;;2.00;1.50;;;;;;;6.17;100.00;100022.90;51951;1271;1077033;-85
2024/01/25 11:34:21;;;;;;;3.60;1.60;;;;;;;6.18;100.00;100032.23;51902;1267;1076929;-84
2024/01/25 11:37:07;;;;;;;7.20;1.30;;;;;;;6.19;100.00;100036.27;52046;1267;1077137;-83
2024/01/25 11:39:54;;;;;;;5.60;1.90;;;;;;;6.19;100.00;100039.42;51997;1267;1076322;-84
2024/01/25 11:42:43;;;;;;;3.90;1.20;;;;;;;6.19;100.00;100044.30;52075;1269;1076808;-78
2024/01/25 11:45:29;;;;;;;3.50;1.40;;;;;;;6.19;100.00;100049.50;52180;1270;1076597;-79
2024/01/25 11:48:15;;;;;;;2.80;1.40;;;;;;;6.20;100.00;100051.92;51937;1267;1076434;-79
2024/01/25 11:51:00;;;;;;;3.30;1.00;;;;;;;6.20;100.00;100062.66;52083;1274;1076223;-79
2024/01/25 11:53:46;;;;;;;4.30;1.50;;;;;;;6.19;100.00;100065.39;52156;1267;1076602;-78
2024/01/25 11:56:35;;;;;;;4.00;1.40;;;;;;;6.20;100.00;100058.64;51600;1267;1076387;-77
2024/01/25 11:59:21;;;;;;;2.60;1.50;;;;;;;6.19;100.00;100056.91;51504;1269;1076716;-77
2024/01/25 12:02:07;;;;;;;3.50;1.80;;;;;;;6.19;100.00;100069.70;51480;1267;1076279;-77
2024/01/25 12:04:55;;;;;;;5.90;2.00;;;;;;;6.20;100.00;100070.43;51605;1270;1076761;-78
2024/01/25 12:07:40;;;;;;;4.80;2.20;;;;;;;6.21;100.00;100074.20;51779;1267;1077266;-84
2024/01/25 12:10:26;;;;;;;3.90;1.40;;;;;;;6.20;100.00;100077.25;52085;1267;1077908;-84
2024/01/25 12:13:12;;;;;;;5.30;1.40;;;;;;;6.17;100.00;100083.93;52167;1270;1076844;-82
2024/01/25 12:16:00;;;;;;;2.80;1.40;;;;;;;6.16;100.00;100090.05;51846;1267;1076947;-84
2024/01/25 12:18:46;;;;;;;7.40;2.20;;;;;;;6.15;100.00;100085.03;51848;1272;1076845;-83
2024/01/25 12:21:34;;;;;;;5.20;1.40;;;;;;;6.13;100.00;100095.70;51802;1267;1077415;-83
2024/01/25 12:24:19;;;;;;;5.60;2.10;;;;;;;6.12;100.00;100093.96;51980;1268;1076340;-82
2024/01/25 12:27:05;;;;;;;4.70;2.00;;;;;;;6.11;100.00;100102.73;51983;1270;1076860;-83
2024/01/25 12:29:54;;;;;;;6.70;1.40;;;;;;;6.07;100.00;100111.61;52098;1267;1076535;-81
2024/01/25 12:32:40;;;;;;;5.90;1.40;;;;;;;6.04;100.00;100122.78;52138;1266;1077493;-83
2024/01/25 12:35:27;;;;;;;9.90;2.10;;;;;;;6.01;100.00;100127.21;51926;1267;1076227;-84
2024/01/25 12:38:13;;;;;;;5.00;1.50;;;;;;;5.98;100.00;100133.27;51902;1271;1076937;-86